createdAt,value
2022-09-10T00:05:05.047Z,53
2022-09-10T00:25:03.311Z,53.5
2022-09-10T00:40:05.211Z,53
2022-09-10T00:55:06.129Z,53.5
2022-09-10T01:10:03.106Z,53.5
2022-09-10T01:25:02.622Z,53.5
2022-09-10T01:40:03.434Z,53.5
2022-09-10T01:55:06.195Z,53.5
2022-09-10T02:10:05.677Z,53
2022-09-10T02:25:06.210Z,53
2022-09-10T02:40:03.536Z,53.5
2022-09-10T03:00:04.629Z,53
2022-09-10T03:15:04.261Z,53
2022-09-10T03:30:02.537Z,53
2022-09-10T03:45:06.495Z,53
2022-09-10T04:00:06.326Z,53
2022-09-10T04:15:03.532Z,53
2022-09-10T04:30:03.448Z,52
2022-09-10T04:45:04.098Z,51.5
2022-09-10T05:30:02.271Z,50.5
2022-09-10T05:45:02.374Z,51.5
2022-09-10T06:00:06.359Z,52
2022-09-10T06:15:04.278Z,51.5
2022-09-10T06:30:02.260Z,52
2022-09-10T06:45:06.508Z,52.5
2022-09-10T07:00:05.170Z,52.5
2022-09-10T07:15:06.091Z,52.5
2022-09-10T07:30:05.527Z,52.5
2022-09-10T07:45:04.590Z,53
2022-09-10T08:00:04.616Z,53
2022-09-10T08:15:04.144Z,52.5
2022-09-10T08:30:05.281Z,53
2022-09-10T08:45:03.459Z,53
2022-09-10T09:00:03.174Z,53
2022-09-10T09:15:02.427Z,53.5
2022-09-10T09:30:06.225Z,54.5
2022-09-10T09:45:02.110Z,54.5
2022-09-10T10:00:02.178Z,54.5
2022-09-10T10:15:02.491Z,55.5
2022-09-10T10:30:02.547Z,55.5
2022-09-10T10:45:02.119Z,54.5
2022-09-10T11:00:03.548Z,54
2022-09-10T11:15:05.359Z,55.5
2022-09-10T11:30:02.279Z,54.5
2022-09-10T11:45:06.528Z,54
2022-09-10T12:00:03.398Z,54.5
2022-09-10T12:15:03.070Z,54
2022-09-10T12:30:05.400Z,55
2022-09-10T12:45:04.359Z,55.5
2022-09-10T13:00:03.574Z,55
2022-09-10T13:15:06.205Z,55.5
2022-09-10T13:30:04.066Z,56
2022-09-10T13:45:03.141Z,55.5
2022-09-10T14:00:03.368Z,55
2022-09-10T14:15:04.552Z,55
2022-09-10T14:30:02.574Z,54.5
2022-09-10T14:45:04.416Z,54.5
2022-09-10T15:00:02.577Z,55.5
2022-09-10T15:15:06.634Z,57
2022-09-10T15:30:03.455Z,57.5
2022-09-10T15:45:02.376Z,57
2022-09-10T16:00:05.315Z,56.5
2022-09-10T16:15:06.183Z,56.5
2022-09-10T16:30:02.169Z,56
2022-09-10T16:45:02.555Z,56
2022-09-10T17:00:03.595Z,56
2022-09-10T17:15:03.116Z,56
2022-09-10T17:30:02.232Z,55.5
2022-09-10T17:45:06.224Z,55
2022-09-10T18:00:03.539Z,55.5
2022-09-10T18:15:03.385Z,55.5
2022-09-10T18:30:05.209Z,55
2022-09-10T18:45:03.062Z,55.5
2022-09-10T19:05:03.224Z,55.5
2022-09-10T19:20:04.290Z,55.5
2022-09-10T19:35:02.610Z,55
2022-09-10T19:50:05.461Z,55
2022-09-10T20:05:03.515Z,55
2022-09-10T20:20:04.330Z,55
2022-09-10T20:35:02.556Z,55.5
2022-09-10T20:50:04.518Z,56
2022-09-10T21:05:04.228Z,55.5
2022-09-10T21:20:06.213Z,55.5
2022-09-10T21:35:05.412Z,55.5
2022-09-10T21:50:03.405Z,55.5
2022-09-10T22:05:03.565Z,55.5
2022-09-10T22:20:02.233Z,56
2022-09-10T22:35:02.081Z,56
2022-09-10T22:50:03.468Z,56
2022-09-10T23:05:04.166Z,56
2022-09-10T23:20:06.465Z,55.5
2022-09-10T23:35:04.195Z,55.5
2022-09-10T23:50:05.395Z,55.5
